createdAt,value
2018-04-27T00:00:31.384Z,7.63
2018-04-27T00:01:31.552Z,7.58
2018-04-27T00:02:31.729Z,7.60
2018-04-27T00:03:31.919Z,7.42
2018-04-27T00:04:32.083Z,7.39
2018-04-27T00:05:32.257Z,7.31
2018-04-27T00:06:32.431Z,7.31
2018-04-27T00:07:32.609Z,7.20
2018-04-27T00:08:32.779Z,7.20
2018-04-27T00:09:32.954Z,7.21
2018-04-27T00:10:33.126Z,7.03
2018-04-27T00:11:33.570Z,7.10
2018-04-27T00:12:33.477Z,7.03
2018-04-27T00:13:33.654Z,7.00
2018-04-27T00:14:33.833Z,6.97
2018-04-27T00:15:34.006Z,6.99
2018-04-27T00:16:34.186Z,7.03
2018-04-27T00:17:34.368Z,6.99
2018-04-27T00:18:34.539Z,6.93
2018-04-27T00:19:34.719Z,6.96
2018-04-27T00:20:34.895Z,7.13
2018-04-27T00:21:35.067Z,6.99
2018-04-27T00:22:35.243Z,7.10
2018-04-27T00:23:35.422Z,7.07
2018-04-27T00:24:35.604Z,7.05
2018-04-27T00:25:35.783Z,7.06
2018-04-27T00:26:35.957Z,7.05
2018-04-27T00:27:36.137Z,7.11
2018-04-27T00:28:36.321Z,7.00
2018-04-27T00:29:36.489Z,7.06
2018-04-27T00:30:36.672Z,7.02
2018-04-27T00:31:36.841Z,6.99
2018-04-27T00:32:37.022Z,6.85
2018-04-27T00:33:37.195Z,6.72
2018-04-27T00:34:37.367Z,6.70
2018-04-27T00:35:37.540Z,6.67
2018-04-27T00:36:37.726Z,6.81
2018-04-27T00:37:37.903Z,6.81
2018-04-27T00:38:38.074Z,6.87
2018-04-27T00:39:38.245Z,6.87
2018-04-27T00:40:38.654Z,6.87
2018-04-27T00:41:38.582Z,6.99
2018-04-27T00:42:38.759Z,7.03
2018-04-27T00:43:38.943Z,7.05
2018-04-27T00:44:39.117Z,7.00
2018-04-27T00:45:39.298Z,7.06
2018-04-27T00:46:39.469Z,7.05
2018-04-27T00:47:39.644Z,7.14
2018-04-27T00:48:39.819Z,6.97
2018-04-27T00:49:39.997Z,6.95
2018-04-27T00:50:40.180Z,6.88
2018-04-27T00:51:40.350Z,6.84
2018-04-27T00:52:40.528Z,6.79
2018-04-27T00:53:40.699Z,6.74
2018-04-27T00:54:40.878Z,6.77
2018-04-27T00:55:41.051Z,6.59
2018-04-27T00:56:41.233Z,6.56
2018-04-27T00:57:41.407Z,6.62
2018-04-27T00:58:41.584Z,6.49
2018-04-27T00:59:41.763Z,6.60
2018-04-27T01:00:41.943Z,6.59
2018-04-27T01:01:42.134Z,6.45
2018-04-27T01:02:42.287Z,6.51
2018-04-27T01:03:42.462Z,6.41
2018-04-27T01:04:42.638Z,6.59
2018-04-27T01:05:42.816Z,6.59
2018-04-27T01:06:42.992Z,6.49
2018-04-27T01:07:43.171Z,6.62
2018-04-27T01:08:43.339Z,6.41
2018-04-27T01:09:43.518Z,6.48
2018-04-27T01:10:43.933Z,6.41
2018-04-27T01:11:43.871Z,6.42
2018-04-27T01:12:44.056Z,6.46
2018-04-27T01:13:44.225Z,6.42
2018-04-27T01:14:44.399Z,6.41
2018-04-27T01:15:44.590Z,6.45
2018-04-27T01:16:44.753Z,6.44
2018-04-27T01:17:44.930Z,6.46
2018-04-27T01:18:45.116Z,6.45
2018-04-27T01:19:45.280Z,6.60
2018-04-27T01:20:45.459Z,6.56
2018-04-27T01:21:45.640Z,6.51
2018-04-27T01:22:45.807Z,6.49
2018-04-27T01:23:45.990Z,6.54
2018-04-27T01:24:46.156Z,6.42
2018-04-27T01:25:46.331Z,6.38
2018-04-27T01:26:46.511Z,6.38
2018-04-27T01:27:46.682Z,6.38
2018-04-27T01:28:46.859Z,6.30
2018-04-27T01:29:47.034Z,6.28
2018-04-27T01:30:47.472Z,6.31
2018-04-27T01:31:47.382Z,6.20
2018-04-27T01:32:47.557Z,6.31
2018-04-27T01:33:47.733Z,6.36
2018-04-27T01:34:47.908Z,6.39
2018-04-27T01:35:48.082Z,6.46
2018-04-27T01:36:48.273Z,6.46
2018-04-27T01:37:48.437Z,6.39
2018-04-27T01:38:48.619Z,6.26
2018-04-27T01:39:48.785Z,6.28
2018-04-27T01:40:48.967Z,6.35
2018-04-27T01:41:49.135Z,6.27
2018-04-27T01:42:49.314Z,6.33
2018-04-27T01:43:49.498Z,6.27
2018-04-27T01:44:49.660Z,6.27
2018-04-27T01:45:49.840Z,6.30
2018-04-27T01:46:50.020Z,6.28
2018-04-27T01:47:50.194Z,6.24
2018-04-27T01:48:50.376Z,6.28
2018-04-27T01:49:50.541Z,6.33
2018-04-27T01:50:50.716Z,6.28
2018-04-27T01:51:50.889Z,6.31
2018-04-27T01:52:51.081Z,6.36
2018-04-27T01:54:51.437Z,6.28
2018-04-27T01:55:51.607Z,6.31
2018-04-27T01:56:51.784Z,6.28
2018-04-27T01:57:51.966Z,6.38
2018-04-27T01:58:52.134Z,6.38
2018-04-27T01:59:52.315Z,6.38
2018-04-27T02:00:52.785Z,6.36
2018-04-27T02:01:52.670Z,6.39
2018-04-27T02:02:52.836Z,6.04
2018-04-27T02:03:53.020Z,6.07
2018-04-27T02:04:53.208Z,6.05
2018-04-27T02:05:53.376Z,5.99
2018-04-27T02:06:53.542Z,5.91
2018-04-27T02:07:53.724Z,6.07
2018-04-27T02:08:53.894Z,5.99
2018-04-27T02:09:54.078Z,5.86
2018-04-27T02:10:54.249Z,5.98
2018-04-27T02:11:54.421Z,5.97
2018-04-27T02:12:54.589Z,6.01
2018-04-27T02:13:54.774Z,6.01
2018-04-27T02:14:54.950Z,5.86
2018-04-27T02:15:55.121Z,5.94
2018-04-27T02:16:55.304Z,5.94
2018-04-27T02:17:55.479Z,5.98
2018-04-27T02:18:55.656Z,6.01
2018-04-27T02:19:55.831Z,5.94
2018-04-27T02:20:56.009Z,6.12
2018-04-27T02:21:56.179Z,6.14
2018-04-27T02:22:56.360Z,6.07
2018-04-27T02:23:56.545Z,6.08
2018-04-27T02:24:56.714Z,6.14
2018-04-27T02:25:56.890Z,6.14
2018-04-27T02:26:57.061Z,5.97
2018-04-27T02:27:57.237Z,5.94
2018-04-27T02:28:57.416Z,5.94
2018-04-27T02:29:57.589Z,5.99
2018-04-27T02:30:57.769Z,6.07
2018-04-27T02:31:57.948Z,6.17
2018-04-27T02:32:58.115Z,6.02
2018-04-27T02:33:58.290Z,6.02
2018-04-27T02:34:58.469Z,5.82
2018-04-27T02:35:58.644Z,5.82
2018-04-27T02:36:58.823Z,5.75
2018-04-27T02:37:58.995Z,5.72
2018-04-27T02:38:59.181Z,5.75
2018-04-27T02:39:59.345Z,5.65
2018-04-27T02:40:59.529Z,5.72
2018-04-27T02:41:59.700Z,5.66
2018-04-27T02:42:59.870Z,5.75
2018-04-27T02:44:00.044Z,5.76
2018-04-27T02:45:00.219Z,5.73
2018-04-27T02:46:00.395Z,5.80
2018-04-27T02:47:00.564Z,5.73
2018-04-27T02:48:00.747Z,5.71
2018-04-27T02:49:00.917Z,5.69
2018-04-27T02:50:01.090Z,5.66
2018-04-27T02:51:01.276Z,5.65
2018-04-27T02:52:01.440Z,5.68
2018-04-27T02:53:01.622Z,5.43
2018-04-27T02:54:01.795Z,5.51
2018-04-27T02:55:01.973Z,5.44
2018-04-27T02:56:02.161Z,5.38
2018-04-27T02:57:02.314Z,5.47
2018-04-27T02:58:02.479Z,5.59
2018-04-27T02:59:02.649Z,5.51
2018-04-27T03:00:02.831Z,5.65
2018-04-27T03:01:03.003Z,5.57
2018-04-27T03:02:03.172Z,5.56
2018-04-27T03:03:03.352Z,5.41
2018-04-27T03:04:03.525Z,5.41
2018-04-27T03:05:03.696Z,5.36
2018-04-27T03:06:03.866Z,5.39
2018-04-27T03:07:04.042Z,5.44
2018-04-27T03:08:04.216Z,5.46
2018-04-27T03:09:04.396Z,5.43
2018-04-27T03:10:04.576Z,5.43
2018-04-27T03:11:04.743Z,5.47
2018-04-27T03:12:04.915Z,5.48
2018-04-27T03:13:05.088Z,5.36
2018-04-27T03:15:05.434Z,5.02
2018-04-27T03:16:05.611Z,5.12
2018-04-27T03:17:05.782Z,5.14
2018-04-27T03:18:05.961Z,5.11
2018-04-27T03:19:06.129Z,5.11
2018-04-27T03:20:06.299Z,5.21
2018-04-27T03:21:06.474Z,5.12
2018-04-27T03:22:06.648Z,5.10
2018-04-27T03:23:06.822Z,4.99
2018-04-27T03:24:07.017Z,4.97
2018-04-27T03:25:07.176Z,4.97
2018-04-27T03:26:07.354Z,5.02
2018-04-27T03:27:07.520Z,5.11
2018-04-27T03:28:07.697Z,5.11
2018-04-27T03:29:07.872Z,5.18
2018-04-27T03:30:08.049Z,5.21
2018-04-27T03:31:08.220Z,5.25
2018-04-27T03:32:08.388Z,5.28
2018-04-27T03:33:08.561Z,5.41
2018-04-27T03:34:08.743Z,5.38
2018-04-27T03:35:08.918Z,5.29
2018-04-27T03:36:09.092Z,5.39
2018-04-27T03:37:09.280Z,5.50
2018-04-27T03:38:09.435Z,5.50
2018-04-27T03:39:09.606Z,5.57
2018-04-27T03:40:09.782Z,5.51
2018-04-27T03:41:09.957Z,5.39
2018-04-27T03:42:10.131Z,5.50
2018-04-27T03:43:10.303Z,5.54
2018-04-27T03:44:10.857Z,5.36
2018-04-27T03:45:10.657Z,5.17
2018-04-27T03:46:10.831Z,5.23
2018-04-27T03:47:11.012Z,5.18
2018-04-27T03:48:11.184Z,5.15
2018-04-27T03:49:11.355Z,5.21
2018-04-27T03:50:11.540Z,5.18
2018-04-27T03:51:11.704Z,5.18
2018-04-27T03:52:11.881Z,5.20
2018-04-27T03:53:12.057Z,5.14
2018-04-27T03:54:12.233Z,5.15
2018-04-27T03:55:12.407Z,5.12
2018-04-27T03:56:12.589Z,5.15
2018-04-27T03:57:12.761Z,5.15
2018-04-27T03:58:12.931Z,5.12
2018-04-27T03:59:13.110Z,5.07
2018-04-27T04:00:13.283Z,5.05
2018-04-27T04:01:13.503Z,5.11
2018-04-27T04:02:13.634Z,5.12
2018-04-27T04:03:13.806Z,5.12
2018-04-27T04:04:13.984Z,5.17
2018-04-27T04:05:14.165Z,4.94
2018-04-27T04:06:14.332Z,4.99
2018-04-27T04:07:14.505Z,5.02
2018-04-27T04:08:14.684Z,5.00
2018-04-27T04:09:14.866Z,5.04
2018-04-27T04:10:15.033Z,5.07
2018-04-27T04:11:15.212Z,5.00
2018-04-27T04:12:15.384Z,4.99
2018-04-27T04:13:15.560Z,5.04
2018-04-27T04:14:15.993Z,5.11
2018-04-27T04:15:15.907Z,5.04
2018-04-27T04:16:16.082Z,4.93
2018-04-27T04:17:16.254Z,5.04
2018-04-27T04:18:16.427Z,4.97
2018-04-27T04:19:16.612Z,5.10
2018-04-27T04:20:16.775Z,5.10
2018-04-27T04:21:16.956Z,5.11
2018-04-27T04:22:17.127Z,5.21
2018-04-27T04:23:17.303Z,5.12
2018-04-27T04:24:17.732Z,5.25
2018-04-27T04:25:17.658Z,5.33
2018-04-27T04:26:17.831Z,5.36
2018-04-27T04:27:18.007Z,5.39
2018-04-27T04:28:18.183Z,5.36
2018-04-27T04:29:18.355Z,5.41
2018-04-27T04:30:18.527Z,5.39
2018-04-27T04:31:18.709Z,5.46
2018-04-27T04:32:18.912Z,5.36
2018-04-27T04:33:19.056Z,5.44
2018-04-27T04:34:19.249Z,5.32
2018-04-27T04:35:19.420Z,5.41
2018-04-27T04:36:19.595Z,5.44
2018-04-27T04:37:19.768Z,5.51
2018-04-27T04:38:20.055Z,5.46
2018-04-27T04:39:20.123Z,5.43
2018-04-27T04:40:20.300Z,5.57
2018-04-27T04:41:20.480Z,5.80
2018-04-27T04:42:20.658Z,5.97
2018-04-27T04:43:20.827Z,5.97
2018-04-27T04:44:21.251Z,6.17
2018-04-27T04:45:21.192Z,6.42
2018-04-27T04:46:21.366Z,6.60
2018-04-27T04:47:21.536Z,6.87
2018-04-27T04:48:21.715Z,7.05
2018-04-27T04:49:21.885Z,7.18
2018-04-27T04:50:22.065Z,7.28
2018-04-27T04:51:22.239Z,7.57
2018-04-27T04:52:22.430Z,7.69
2018-04-27T04:53:22.602Z,7.72
2018-04-27T04:54:22.805Z,7.90
2018-04-27T04:55:22.943Z,7.90
2018-04-27T04:56:23.122Z,8.16
2018-04-27T04:58:23.467Z,8.26
2018-04-27T04:59:23.643Z,8.28
2018-04-27T05:00:23.820Z,8.31
2018-04-27T05:01:24.000Z,8.30
2018-04-27T05:02:24.175Z,8.36
2018-04-27T05:03:24.355Z,8.37
2018-04-27T05:04:24.540Z,8.27
2018-04-27T05:05:24.718Z,8.33
2018-04-27T05:06:24.900Z,7.77
2018-04-27T05:07:25.075Z,7.63
2018-04-27T05:08:25.253Z,7.51
2018-04-27T05:09:25.433Z,7.42
2018-04-27T05:10:25.617Z,7.21
2018-04-27T05:11:25.799Z,7.02
2018-04-27T05:12:25.974Z,7.06
2018-04-27T05:13:26.148Z,7.20
2018-04-27T05:14:26.333Z,7.21
2018-04-27T05:15:26.521Z,7.20
2018-04-27T05:16:26.701Z,7.11
2018-04-27T05:17:26.878Z,6.85
2018-04-27T05:18:27.057Z,6.82
2018-04-27T05:19:27.230Z,6.75
2018-04-27T05:20:27.410Z,6.75
2018-04-27T05:21:27.631Z,6.63
2018-04-27T05:22:27.783Z,6.62
2018-04-27T05:23:27.954Z,6.57
2018-04-27T05:24:28.134Z,6.54
2018-04-27T05:25:28.319Z,6.59
2018-04-27T05:26:28.488Z,6.60
2018-04-27T05:27:28.680Z,6.59
2018-04-27T05:28:28.845Z,6.59
2018-04-27T05:29:29.044Z,6.63
2018-04-27T05:30:29.181Z,6.49
2018-04-27T05:31:29.610Z,6.57
2018-04-27T05:32:29.542Z,6.51
2018-04-27T05:33:29.719Z,6.46
2018-04-27T05:34:29.899Z,6.22
2018-04-27T05:35:30.070Z,5.87
2018-04-27T05:36:30.247Z,5.75
2018-04-27T05:37:30.425Z,5.87
2018-04-27T05:38:30.605Z,5.71
2018-04-27T05:39:30.807Z,5.87
2018-04-27T05:40:30.965Z,6.11
2018-04-27T05:41:31.379Z,6.27
2018-04-27T05:42:31.308Z,6.63
2018-04-27T05:43:31.487Z,7.56
2018-04-27T05:44:31.666Z,8.00
2018-04-27T05:45:31.844Z,8.33
2018-04-27T05:46:32.009Z,8.28
2018-04-27T05:47:32.185Z,8.51
2018-04-27T05:48:32.369Z,8.67
2018-04-27T05:49:32.539Z,8.51
2018-04-27T05:50:32.713Z,8.88
2018-04-27T05:51:32.898Z,8.88
2018-04-27T05:52:33.074Z,8.97
2018-04-27T05:53:33.256Z,9.11
2018-04-27T05:54:33.437Z,9.06
2018-04-27T05:55:33.616Z,9.10
2018-04-27T05:56:33.795Z,9.58
2018-04-27T05:57:33.970Z,9.62
2018-04-27T05:58:34.139Z,9.68
2018-04-27T05:59:34.327Z,9.79
2018-04-27T06:00:34.502Z,10.25
2018-04-27T06:01:34.682Z,10.09
2018-04-27T06:02:34.870Z,10.40
2018-04-27T06:03:35.046Z,10.69
2018-04-27T06:04:35.315Z,10.82
2018-04-27T06:05:35.410Z,10.90
2018-04-27T06:06:35.595Z,11.29
2018-04-27T06:07:35.854Z,11.10
2018-04-27T06:08:35.941Z,10.87
2018-04-27T06:09:36.128Z,11.50
2018-04-27T06:10:36.308Z,11.51
2018-04-27T06:11:36.494Z,11.32
2018-04-27T06:12:36.676Z,11.44
2018-04-27T06:13:36.862Z,11.00
2018-04-27T06:14:37.044Z,11.35
2018-04-27T06:15:37.229Z,11.51
2018-04-27T06:16:37.409Z,11.12
2018-04-27T06:17:37.593Z,10.72
2018-04-27T06:18:37.778Z,9.80
2018-04-27T06:19:37.957Z,8.30
2018-04-27T06:20:38.152Z,8.31
2018-04-27T06:21:38.322Z,8.41
2018-04-27T06:22:38.506Z,8.26
2018-04-27T06:23:38.690Z,8.52
2018-04-27T06:24:38.871Z,8.78
2018-04-27T06:25:39.136Z,8.71
2018-04-27T06:26:39.252Z,8.24
2018-04-27T06:27:39.421Z,8.05
2018-04-27T06:28:39.604Z,7.77
2018-04-27T06:29:39.795Z,7.53
2018-04-27T06:30:39.972Z,7.76
2018-04-27T06:31:40.157Z,8.16
2018-04-27T06:32:40.333Z,8.30
2018-04-27T06:33:40.581Z,8.67
2018-04-27T06:34:40.748Z,8.81
2018-04-27T06:35:40.937Z,9.00
2018-04-27T06:36:41.116Z,9.11
2018-04-27T06:37:41.299Z,9.46
2018-04-27T06:38:41.491Z,10.05
2018-04-27T06:39:42.010Z,10.86
2018-04-27T06:40:41.856Z,11.72
2018-04-27T06:41:42.039Z,12.04
2018-04-27T06:42:42.227Z,12.03
2018-04-27T06:43:42.398Z,12.65
2018-04-27T06:44:42.586Z,12.62
2018-04-27T06:45:42.770Z,12.21
2018-04-27T06:46:42.953Z,12.15
2018-04-27T06:47:43.141Z,12.12
2018-04-27T06:48:43.315Z,11.86
2018-04-27T06:49:43.512Z,12.25
2018-04-27T06:50:43.687Z,13.08
2018-04-27T06:51:43.876Z,13.99
2018-04-27T06:52:44.058Z,14.05
2018-04-27T06:53:44.238Z,13.19
2018-04-27T06:54:44.418Z,12.75
2018-04-27T06:55:44.601Z,12.85
2018-04-27T06:56:44.795Z,12.73
2018-04-27T06:57:44.969Z,13.01
2018-04-27T06:58:45.148Z,13.27
2018-04-27T06:59:45.330Z,12.49
2018-04-27T07:00:45.516Z,12.98
2018-04-27T07:01:45.702Z,13.49
2018-04-27T07:02:45.924Z,13.57
2018-04-27T07:03:46.189Z,13.41
2018-04-27T07:04:46.291Z,13.44
2018-04-27T07:05:46.484Z,13.31
2018-04-27T07:06:46.671Z,13.25
2018-04-27T07:07:46.858Z,13.68
2018-04-27T07:08:47.030Z,13.57
2018-04-27T07:09:47.215Z,13.70
2018-04-27T07:10:47.402Z,13.93
2018-04-27T07:11:47.586Z,13.92
2018-04-27T07:12:47.773Z,14.04
2018-04-27T07:13:47.952Z,14.11
2018-04-27T07:14:48.152Z,13.99
2018-04-27T07:15:48.322Z,14.05
2018-04-27T07:16:48.520Z,14.15
2018-04-27T07:17:48.690Z,14.32
2018-04-27T07:18:48.879Z,14.32
2018-04-27T07:19:49.062Z,14.23
2018-04-27T07:20:49.486Z,13.83
2018-04-27T07:21:49.428Z,13.83
2018-04-27T07:22:49.613Z,14.04
2018-04-27T07:23:49.802Z,14.33
2018-04-27T07:24:49.983Z,13.87
2018-04-27T07:25:50.253Z,14.35
2018-04-27T07:26:50.357Z,14.59
2018-04-27T07:27:50.540Z,15.19
2018-04-27T07:28:50.739Z,15.11
2018-04-27T07:29:50.909Z,14.73
2018-04-27T07:30:51.093Z,14.50
2018-04-27T07:31:51.282Z,14.04
2018-04-27T07:32:51.465Z,13.46
2018-04-27T07:33:51.655Z,13.20
2018-04-27T07:34:51.839Z,13.03
2018-04-27T07:35:52.021Z,13.52
2018-04-27T07:36:52.194Z,14.11
2018-04-27T07:37:52.379Z,14.40
2018-04-27T07:38:52.562Z,14.37
2018-04-27T07:39:52.757Z,14.37
2018-04-27T07:40:52.950Z,14.36
2018-04-27T07:41:53.386Z,14.54
2018-04-27T07:42:53.327Z,14.70
2018-04-27T07:43:53.511Z,14.94
2018-04-27T07:44:53.715Z,14.99
2018-04-27T07:45:53.885Z,15.36
2018-04-27T07:46:54.057Z,15.03
2018-04-27T07:47:54.275Z,15.47
2018-04-27T07:48:54.413Z,15.15
2018-04-27T07:49:54.598Z,14.48
2018-04-27T07:50:54.783Z,14.32
2018-04-27T07:51:54.971Z,14.48
2018-04-27T07:52:55.167Z,14.40
2018-04-27T07:53:55.345Z,14.32
2018-04-27T07:54:55.538Z,14.81
2018-04-27T07:55:55.706Z,15.21
2018-04-27T07:56:55.893Z,15.33
2018-04-27T07:57:56.078Z,15.02
2018-04-27T07:58:56.263Z,15.19
2018-04-27T07:59:56.449Z,15.57
2018-04-27T08:00:56.650Z,15.80
2018-04-27T08:01:56.836Z,15.77
2018-04-27T08:02:57.023Z,16.02
2018-04-27T08:03:57.216Z,16.10
2018-04-27T08:04:57.392Z,15.67
2018-04-27T08:05:57.566Z,16.08
2018-04-27T08:06:57.756Z,16.51
2018-04-27T08:07:57.937Z,16.60
2018-04-27T08:08:58.134Z,16.79
2018-04-27T08:09:58.309Z,16.89
2018-04-27T08:10:58.497Z,16.69
2018-04-27T08:11:58.675Z,16.54
2018-04-27T08:12:58.857Z,16.47
2018-04-27T08:13:59.041Z,16.56
2018-04-27T08:14:59.228Z,16.50
2018-04-27T08:15:59.427Z,16.36
2018-04-27T08:16:59.590Z,16.53
2018-04-27T08:17:59.774Z,16.81
2018-04-27T08:18:59.986Z,16.66
2018-04-27T08:20:00.177Z,16.64
2018-04-27T08:21:00.362Z,17.06
2018-04-27T08:22:00.543Z,17.42
2018-04-27T08:23:00.724Z,17.64
2018-04-27T08:24:00.910Z,17.60
2018-04-27T08:25:01.117Z,17.80
2018-04-27T08:26:01.296Z,17.60
2018-04-27T08:27:01.467Z,16.58
2018-04-27T08:28:01.657Z,16.49
2018-04-27T08:29:01.845Z,16.69
2018-04-27T08:30:02.050Z,17.05
2018-04-27T08:31:02.195Z,17.19
2018-04-27T08:32:02.382Z,16.91
2018-04-27T08:33:03.657Z,17.23
2018-04-27T08:34:02.736Z,17.20
2018-04-27T08:35:03.659Z,16.64
2018-04-27T08:36:03.121Z,15.64
2018-04-27T08:37:03.531Z,16.00
2018-04-27T08:38:03.485Z,16.39
2018-04-27T08:39:03.658Z,16.10
2018-04-27T08:40:03.841Z,15.21
2018-04-27T08:41:04.028Z,15.33
2018-04-27T08:42:04.216Z,15.58
2018-04-27T08:43:04.408Z,15.77
2018-04-27T08:44:04.569Z,16.15
2018-04-27T08:45:04.764Z,16.08
2018-04-27T08:46:04.934Z,16.51
2018-04-27T08:47:05.119Z,16.90
2018-04-27T08:48:05.305Z,17.14
2018-04-27T08:49:05.489Z,17.42
2018-04-27T08:50:05.678Z,17.76
2018-04-27T08:51:05.857Z,17.86
2018-04-27T08:52:06.044Z,17.74
2018-04-27T08:53:06.228Z,17.11
2018-04-27T08:54:06.414Z,17.22
2018-04-27T08:55:06.597Z,16.50
2018-04-27T08:56:06.795Z,16.33
2018-04-27T08:57:06.990Z,16.54
2018-04-27T08:58:07.139Z,16.72
2018-04-27T08:59:07.332Z,16.87
2018-04-27T09:00:07.517Z,17.15
2018-04-27T09:01:07.698Z,17.26
2018-04-27T09:02:07.891Z,17.60
2018-04-27T09:03:08.071Z,17.94
2018-04-27T09:04:08.262Z,17.70
2018-04-27T09:05:08.437Z,18.13
2018-04-27T09:06:08.624Z,18.43
2018-04-27T09:07:08.813Z,18.60
2018-04-27T09:08:09.231Z,17.87
2018-04-27T09:09:09.170Z,16.74
2018-04-27T09:10:09.356Z,17.04
2018-04-27T09:11:09.543Z,17.04
2018-04-27T09:12:09.729Z,17.57
2018-04-27T09:13:09.914Z,17.98
2018-04-27T09:14:10.106Z,17.34
2018-04-27T09:15:10.282Z,17.68
2018-04-27T09:16:10.478Z,17.94
2018-04-27T09:17:10.661Z,18.26
2018-04-27T09:18:10.846Z,17.89
2018-04-27T09:19:11.019Z,18.00
2018-04-27T09:20:11.201Z,17.41
2018-04-27T09:21:11.391Z,17.09
2018-04-27T09:22:11.592Z,17.60
2018-04-27T09:23:11.764Z,18.28
2018-04-27T09:24:11.946Z,18.59
2018-04-27T09:25:12.192Z,18.62
2018-04-27T09:26:12.355Z,19.02
2018-04-27T09:27:12.542Z,19.37
2018-04-27T09:28:12.729Z,19.29
2018-04-27T09:29:12.927Z,18.93
2018-04-27T09:30:13.114Z,18.84
2018-04-27T09:31:13.299Z,18.75
2018-04-27T09:32:13.545Z,18.47
2018-04-27T09:33:13.691Z,18.25
2018-04-27T09:34:13.854Z,18.60
2018-04-27T09:35:14.038Z,18.58
2018-04-27T09:36:14.233Z,17.79
2018-04-27T09:37:14.415Z,18.37
2018-04-27T09:38:14.607Z,18.00
2018-04-27T09:39:14.784Z,17.39
2018-04-27T09:40:14.970Z,17.57
2018-04-27T09:41:15.171Z,16.35
2018-04-27T09:42:15.346Z,16.66
2018-04-27T09:43:15.537Z,17.11
2018-04-27T09:44:15.714Z,17.19
2018-04-27T09:45:15.902Z,17.57
2018-04-27T09:46:16.131Z,17.94
2018-04-27T09:47:16.269Z,18.68
2018-04-27T09:48:16.460Z,18.70
2018-04-27T09:49:16.636Z,18.62
2018-04-27T09:50:16.827Z,17.83
2018-04-27T09:51:17.003Z,17.72
2018-04-27T09:52:17.191Z,17.74
2018-04-27T09:53:17.409Z,17.97
2018-04-27T09:54:17.628Z,18.38
2018-04-27T09:55:17.782Z,17.72
2018-04-27T09:56:17.981Z,17.27
2018-04-27T09:57:18.144Z,17.36
2018-04-27T09:58:18.363Z,17.49
2018-04-27T09:59:18.488Z,17.67
2018-04-27T10:00:18.656Z,18.19
2018-04-27T10:01:18.845Z,18.62
2018-04-27T10:02:19.026Z,18.81
2018-04-27T10:03:19.223Z,18.55
2018-04-27T10:04:19.400Z,18.56
2018-04-27T10:05:19.591Z,18.10
2018-04-27T10:06:19.772Z,17.64
2018-04-27T10:07:19.981Z,17.29
2018-04-27T10:08:20.141Z,17.83
2018-04-27T10:09:20.351Z,18.05
2018-04-27T10:10:20.516Z,18.37
2018-04-27T10:11:20.692Z,18.74
2018-04-27T10:12:20.883Z,17.82
2018-04-27T10:13:21.067Z,17.57
2018-04-27T10:14:21.251Z,16.94
2018-04-27T10:15:21.445Z,17.24
2018-04-27T10:16:21.610Z,17.44
2018-04-27T10:17:22.040Z,17.31
2018-04-27T10:18:21.986Z,17.83
2018-04-27T10:19:22.176Z,17.94
2018-04-27T10:20:22.409Z,18.29
2018-04-27T10:21:22.536Z,18.59
2018-04-27T10:22:22.725Z,18.23
2018-04-27T10:23:22.929Z,18.03
2018-04-27T10:24:23.090Z,17.52
2018-04-27T10:25:23.281Z,17.48
2018-04-27T10:26:23.470Z,17.19
2018-04-27T10:27:23.649Z,17.78
2018-04-27T10:28:23.840Z,18.03
2018-04-27T10:29:24.025Z,16.97
2018-04-27T10:30:24.208Z,16.72
2018-04-27T10:31:24.403Z,16.75
2018-04-27T10:32:24.583Z,17.05
2018-04-27T10:33:24.771Z,17.49
2018-04-27T10:34:24.959Z,18.04
2018-04-27T10:35:25.147Z,18.40
2018-04-27T10:36:25.324Z,18.92
2018-04-27T10:37:25.523Z,19.29
2018-04-27T10:38:25.692Z,19.66
2018-04-27T10:39:25.877Z,19.85
2018-04-27T10:40:26.062Z,19.29
2018-04-27T10:41:26.250Z,18.74
2018-04-27T10:42:28.628Z,18.78
2018-04-27T10:43:26.573Z,18.92
2018-04-27T10:44:26.750Z,18.95
2018-04-27T10:45:26.947Z,19.04
2018-04-27T10:46:27.127Z,18.84
2018-04-27T10:47:27.314Z,18.96
2018-04-27T10:48:27.500Z,18.86
2018-04-27T10:49:27.682Z,17.95
2018-04-27T10:50:27.881Z,17.92
2018-04-27T10:51:28.071Z,17.48
2018-04-27T10:52:28.260Z,17.31
2018-04-27T10:53:28.445Z,17.11
2018-04-27T10:54:28.622Z,17.06
2018-04-27T10:55:28.810Z,17.71
2018-04-27T10:56:29.003Z,18.19
2018-04-27T10:57:29.195Z,18.33
2018-04-27T10:58:29.367Z,18.28
2018-04-27T10:59:29.539Z,18.40
2018-04-27T11:00:29.729Z,18.29
2018-04-27T11:01:29.911Z,18.33
2018-04-27T11:02:30.099Z,18.31
2018-04-27T11:03:30.277Z,17.57
2018-04-27T11:04:30.471Z,17.87
2018-04-27T11:05:30.661Z,17.86
2018-04-27T11:06:30.843Z,17.27
2018-04-27T11:07:31.123Z,16.89
2018-04-27T11:08:31.200Z,16.68
2018-04-27T11:09:31.377Z,16.65
2018-04-27T11:10:31.560Z,16.39
2018-04-27T11:11:31.729Z,16.72
2018-04-27T11:12:31.922Z,16.78
2018-04-27T11:13:32.108Z,16.74
2018-04-27T11:14:32.291Z,16.78
2018-04-27T11:15:32.473Z,16.87
2018-04-27T11:16:32.668Z,16.66
2018-04-27T11:17:32.812Z,16.42
2018-04-27T11:18:33.019Z,16.79
2018-04-27T11:19:33.514Z,16.97
2018-04-27T11:20:33.342Z,16.72
2018-04-27T11:21:33.535Z,16.86
2018-04-27T11:22:33.731Z,17.38
2018-04-27T11:23:34.941Z,17.41
2018-04-27T11:24:34.093Z,17.26
2018-04-27T11:25:34.268Z,17.76
2018-04-27T11:26:34.452Z,18.01
2018-04-27T11:27:34.639Z,18.19
2018-04-27T11:28:34.837Z,18.34
2018-04-27T11:29:35.007Z,18.52
2018-04-27T11:30:35.175Z,18.83
2018-04-27T11:31:35.356Z,18.99
2018-04-27T11:33:35.728Z,19.04
2018-04-27T11:34:36.026Z,19.18
2018-04-27T11:35:36.989Z,19.07
2018-04-27T11:36:36.257Z,18.93
2018-04-27T11:37:37.066Z,18.62
2018-04-27T11:38:36.613Z,18.66
2018-04-27T11:39:36.804Z,18.93
2018-04-27T11:40:36.996Z,19.02
2018-04-27T11:41:37.171Z,18.75
2018-04-27T11:42:37.367Z,18.34
2018-04-27T11:43:37.541Z,18.35
2018-04-27T11:44:37.729Z,18.62
2018-04-27T11:45:37.915Z,18.35
2018-04-27T11:46:38.094Z,18.63
2018-04-27T11:47:38.339Z,18.80
2018-04-27T11:48:38.469Z,17.98
2018-04-27T11:49:38.650Z,18.10
2018-04-27T11:50:38.842Z,18.43
2018-04-27T11:51:39.018Z,18.62
2018-04-27T11:52:39.204Z,18.26
2018-04-27T11:53:39.398Z,18.29
2018-04-27T11:54:39.577Z,18.04
2018-04-27T11:55:39.753Z,17.90
2018-04-27T11:56:39.936Z,17.97
2018-04-27T11:57:40.129Z,18.10
2018-04-27T11:58:40.314Z,18.10
2018-04-27T11:59:40.494Z,18.04
2018-04-27T12:00:40.677Z,18.62
2018-04-27T12:01:40.913Z,18.86
2018-04-27T12:02:41.047Z,19.00
2018-04-27T12:03:41.501Z,19.04
2018-04-27T12:04:41.417Z,18.75
2018-04-27T12:05:41.602Z,19.07
2018-04-27T12:06:41.779Z,19.08
2018-04-27T12:07:41.964Z,18.71
2018-04-27T12:08:42.151Z,18.63
2018-04-27T12:09:42.330Z,18.60
2018-04-27T12:10:42.608Z,17.79
2018-04-27T12:11:42.706Z,17.86
2018-04-27T12:12:42.873Z,17.87
2018-04-27T12:13:43.063Z,18.00
2018-04-27T12:14:43.253Z,18.63
2018-04-27T12:15:43.423Z,18.88
2018-04-27T12:16:43.608Z,18.86
2018-04-27T12:17:43.797Z,19.18
2018-04-27T12:18:43.990Z,19.40
2018-04-27T12:19:44.174Z,19.08
2018-04-27T12:20:44.347Z,19.08
2018-04-27T12:21:44.532Z,19.12
2018-04-27T12:22:44.724Z,18.81
2018-04-27T12:23:44.916Z,18.96
2018-04-27T12:24:45.146Z,19.30
2018-04-27T12:25:45.298Z,19.29
2018-04-27T12:26:45.486Z,19.26
2018-04-27T12:27:45.676Z,19.39
2018-04-27T12:28:45.860Z,19.14
2018-04-27T12:29:46.043Z,19.07
2018-04-27T12:30:46.239Z,19.29
2018-04-27T12:31:46.668Z,19.48
2018-04-27T12:32:46.585Z,19.40
2018-04-27T12:33:46.868Z,19.63
2018-04-27T12:34:46.932Z,19.55
2018-04-27T12:35:47.105Z,19.40
2018-04-27T12:36:47.278Z,18.86
2018-04-27T12:37:47.463Z,18.41
2018-04-27T12:38:47.656Z,18.58
2018-04-27T12:39:47.824Z,18.52
2018-04-27T12:40:48.012Z,18.62
2018-04-27T12:41:48.190Z,18.80
2018-04-27T12:42:48.379Z,18.96
2018-04-27T12:43:48.559Z,19.18
2018-04-27T12:44:48.865Z,18.83
2018-04-27T12:45:48.923Z,18.71
2018-04-27T12:46:49.117Z,19.11
2018-04-27T12:47:49.284Z,19.11
2018-04-27T12:48:49.479Z,19.19
2018-04-27T12:49:49.730Z,19.41
2018-04-27T12:50:49.827Z,19.27
2018-04-27T12:51:50.129Z,19.21
2018-04-27T12:52:50.207Z,19.27
2018-04-27T12:53:50.397Z,19.47
2018-04-27T12:54:50.563Z,18.73
2018-04-27T12:55:50.873Z,18.55
2018-04-27T12:56:51.101Z,18.73
2018-04-27T12:57:51.051Z,18.74
2018-04-27T12:58:51.258Z,18.50
2018-04-27T12:59:51.416Z,18.59
2018-04-27T13:00:51.618Z,18.80
2018-04-27T13:01:51.872Z,18.80
2018-04-27T13:02:51.953Z,18.63
2018-04-27T13:03:55.093Z,18.73
2018-04-27T13:04:52.274Z,18.81
2018-04-27T13:05:52.456Z,18.74
2018-04-27T13:06:52.632Z,18.84
2018-04-27T13:07:52.920Z,19.24
2018-04-27T13:08:53.017Z,19.44
2018-04-27T13:09:53.218Z,19.30
2018-04-27T13:10:53.394Z,19.45